Alpine, Indiana
Current Conditions -  °F | °C
As of 8:35 AM on Friday 31 Oct 2014 (Local Time) from KI67 Reporting Station
Overcast Overcast  
Wind Chill: 41°   Ceiling: 11000
Heat Index: 41°   Visibility: 7mi
Dew Point: 41°   Wind: 0mph
Humidity: 100%   Direction: NA
Pressure: 29.97"   Gusts: NA
Location:  39.645°N, 85.1744°W
Report Text: KI67 311235Z AUTO 00000KT 7SM SCT085 OVC110 05/05 A2997 RMK AO1
Loading
Personal Weather Stations






























Interactive Weather Map
Tropical Storm Tracking
New forecast layout! Learn more

10-Day Weather Forecast

Advertisements
Track Severe Weather on mobile